sensor_id;sensor_type;location;lat;lon;timestamp;temperature;humidity
10155;DHT22;5118;48.570;7.916;2022-09-23T00:02:08;9.20;99.90
10155;DHT22;5118;48.570;7.916;2022-09-23T00:04:36;9.20;99.90
10155;DHT22;5118;48.570;7.916;2022-09-23T00:07:04;9.10;99.90
10155;DHT22;5118;48.570;7.916;2022-09-23T00:09:33;9.10;99.90
10155;DHT22;5118;48.570;7.916;2022-09-23T00:12:01;9.20;99.90
10155;DHT22;5118;48.570;7.916;2022-09-23T00:14:36;9.20;99.90
10155;DHT22;5118;48.570;7.916;2022-09-23T00:17:04;9.20;99.90
10155;DHT22;5118;48.570;7.916;2022-09-23T00:19:37;9.20;99.90
10155;DHT22;5118;48.570;7.916;2022-09-23T00:22:05;9.20;99.90
10155;DHT22;5118;48.570;7.916;2022-09-23T00:24:34;9.20;99.90
10155;DHT22;5118;48.570;7.916;2022-09-23T00:27:03;9.10;99.90
10155;DHT22;5118;48.570;7.916;2022-09-23T00:29:31;9.10;99.90
10155;DHT22;5118;48.570;7.916;2022-09-23T00:32:00;9.10;99.90
10155;DHT22;5118;48.570;7.916;2022-09-23T00:34:28;9.00;99.90
10155;DHT22;5118;48.570;7.916;2022-09-23T00:36:58;9.00;99.90
10155;DHT22;5118;48.570;7.916;2022-09-23T00:39:26;9.00;99.90
10155;DHT22;5118;48.570;7.916;2022-09-23T00:41:54;9.00;99.90
10155;DHT22;5118;48.570;7.916;2022-09-23T00:44:44;9.00;99.90
10155;DHT22;5118;48.570;7.916;2022-09-23T00:47:20;9.00;99.90
10155;DHT22;5118;48.570;7.916;2022-09-23T00:49:54;8.90;99.90
10155;DHT22;5118;48.570;7.916;2022-09-23T00:52:29;8.90;99.90
10155;DHT22;5118;48.570;7.916;2022-09-23T00:55:00;8.90;99.90
10155;DHT22;5118;48.570;7.916;2022-09-23T00:57:31;8.80;99.90
10155;DHT22;5118;48.570;7.916;2022-09-23T01:00:04;8.80;99.90
10155;DHT22;5118;48.570;7.916;2022-09-23T01:02:37;8.80;99.90
10155;DHT22;5118;48.570;7.916;2022-09-23T01:05:07;8.70;99.90
10155;DHT22;5118;48.570;7.916;2022-09-23T01:07:36;8.70;99.90
10155;DHT22;5118;48.570;7.916;2022-09-23T01:10:06;8.70;99.90
10155;DHT22;5118;48.570;7.916;2022-09-23T01:12:53;8.60;99.90
10155;DHT22;5118;48.570;7.916;2022-09-23T01:15:29;8.60;99.90
10155;DHT22;5118;48.570;7.916;2022-09-23T01:18:07;8.50;99.90
10155;DHT22;5118;48.570;7.916;2022-09-23T01:20:57;8.50;99.90
10155;DHT22;5118;48.570;7.916;2022-09-23T01:23:54;8.50;99.90
10155;DHT22;5118;48.570;7.916;2022-09-23T01:26:44;8.50;99.90
10155;DHT22;5118;48.570;7.916;2022-09-23T01:29:39;8.50;99.90
10155;DHT22;5118;48.570;7.916;2022-09-23T01:32:25;8.50;99.90
10155;DHT22;5118;48.570;7.916;2022-09-23T01:35:03;8.40;99.90
10155;DHT22;5118;48.570;7.916;2022-09-23T01:37:40;8.40;99.90
10155;DHT22;5118;48.570;7.916;2022-09-23T01:40:15;8.40;99.90
10155;DHT22;5118;48.570;7.916;2022-09-23T01:42:46;8.40;99.90
10155;DHT22;5118;48.570;7.916;2022-09-23T01:45:21;8.40;99.90
10155;DHT22;5118;48.570;7.916;2022-09-23T01:47:54;8.30;99.90
10155;DHT22;5118;48.570;7.916;2022-09-23T01:50:29;8.30;99.90
10155;DHT22;5118;48.570;7.916;2022-09-23T01:53:18;8.30;99.90
10155;DHT22;5118;48.570;7.916;2022-09-23T01:55:50;8.30;99.90
10155;DHT22;5118;48.570;7.916;2022-09-23T01:58:26;8.30;99.90
10155;DHT22;5118;48.570;7.916;2022-09-23T02:00:58;8.30;99.90
10155;DHT22;5118;48.570;7.916;2022-09-23T02:03:31;8.30;99.90
10155;DHT22;5118;48.570;7.916;2022-09-23T02:06:03;8.30;99.90
10155;DHT22;5118;48.570;7.916;2022-09-23T02:08:35;8.30;99.90
10155;DHT22;5118;48.570;7.916;2022-09-23T02:11:07;8.20;99.90
10155;DHT22;5118;48.570;7.916;2022-09-23T02:13:39;8.20;99.90
10155;DHT22;5118;48.570;7.916;2022-09-23T02:16:12;8.20;99.90
10155;DHT22;5118;48.570;7.916;2022-09-23T02:18:48;8.20;99.90
10155;DHT22;5118;48.570;7.916;2022-09-23T02:21:20;8.20;99.90
10155;DHT22;5118;48.570;7.916;2022-09-23T02:23:56;8.20;99.90
10155;DHT22;5118;48.570;7.916;2022-09-23T02:26:30;8.10;99.90
10155;DHT22;5118;48.570;7.916;2022-09-23T02:29:06;8.10;99.90
10155;DHT22;5118;48.570;7.916;2022-09-23T02:31:40;8.10;99.90
10155;DHT22;5118;48.570;7.916;2022-09-23T02:34:19;8.10;99.90
10155;DHT22;5118;48.570;7.916;2022-09-23T02:36:58;8.00;99.90
10155;DHT22;5118;48.570;7.916;2022-09-23T02:39:37;8.00;99.90
10155;DHT22;5118;48.570;7.916;2022-09-23T02:42:11;8.00;99.90
10155;DHT22;5118;48.570;7.916;2022-09-23T02:44:40;7.90;99.90
10155;DHT22;5118;48.570;7.916;2022-09-23T02:47:11;7.90;99.90
10155;DHT22;5118;48.570;7.916;2022-09-23T02:49:41;7.90;99.90
10155;DHT22;5118;48.570;7.916;2022-09-23T02:52:10;7.90;99.90
10155;DHT22;5118;48.570;7.916;2022-09-23T02:54:39;7.80;99.90
10155;DHT22;5118;48.570;7.916;2022-09-23T02:57:08;7.80;99.90
10155;DHT22;5118;48.570;7.916;2022-09-23T02:59:37;7.80;99.90
10155;DHT22;5118;48.570;7.916;2022-09-23T03:02:14;7.80;99.90
10155;DHT22;5118;48.570;7.916;2022-09-23T03:04:54;7.80;99.90
10155;DHT22;5118;48.570;7.916;2022-09-23T03:07:29;7.70;99.90
10155;DHT22;5118;48.570;7.916;2022-09-23T03:10:05;7.70;99.90
10155;DHT22;5118;48.570;7.916;2022-09-23T03:12:39;7.70;99.90
10155;DHT22;5118;48.570;7.916;2022-09-23T03:15:17;7.60;99.90
10155;DHT22;5118;48.570;7.916;2022-09-23T03:17:54;7.60;99.90
10155;DHT22;5118;48.570;7.916;2022-09-23T03:20:29;7.50;99.90
10155;DHT22;5118;48.570;7.916;2022-09-23T03:23:02;7.50;99.90
10155;DHT22;5118;48.570;7.916;2022-09-23T03:25:35;7.50;99.90
10155;DHT22;5118;48.570;7.916;2022-09-23T03:28:06;7.50;99.90
10155;DHT22;5118;48.570;7.916;2022-09-23T03:30:35;7.50;99.90
10155;DHT22;5118;48.570;7.916;2022-09-23T03:33:06;7.50;99.90
10155;DHT22;5118;48.570;7.916;2022-09-23T03:35:42;7.50;99.90
10155;DHT22;5118;48.570;7.916;2022-09-23T03:38:30;7.50;99.90
10155;DHT22;5118;48.570;7.916;2022-09-23T03:41:02;7.50;99.90
10155;DHT22;5118;48.570;7.916;2022-09-23T03:43:31;7.50;99.90
10155;DHT22;5118;48.570;7.916;2022-09-23T03:46:06;7.60;99.90
10155;DHT22;5118;48.570;7.916;2022-09-23T03:48:35;7.60;99.90
10155;DHT22;5118;48.570;7.916;2022-09-23T03:51:18;7.60;99.90
10155;DHT22;5118;48.570;7.916;2022-09-23T03:53:47;7.60;99.90
10155;DHT22;5118;48.570;7.916;2022-09-23T03:56:15;7.60;99.90
10155;DHT22;5118;48.570;7.916;2022-09-23T03:58:44;7.60;99.90
10155;DHT22;5118;48.570;7.916;2022-09-23T04:01:12;7.60;99.90
10155;DHT22;5118;48.570;7.916;2022-09-23T04:03:41;7.60;99.90
10155;DHT22;5118;48.570;7.916;2022-09-23T04:06:11;7.60;99.90
10155;DHT22;5118;48.570;7.916;2022-09-23T04:08:42;7.60;99.90
10155;DHT22;5118;48.570;7.916;2022-09-23T04:11:11;7.60;99.90
10155;DHT22;5118;48.570;7.916;2022-09-23T04:13:39;7.60;99.90
10155;DHT22;5118;48.570;7.916;2022-09-23T04:16:07;7.60;99.90
10155;DHT22;5118;48.570;7.916;2022-09-23T04:18:35;7.60;99.90
10155;DHT22;5118;48.570;7.916;2022-09-23T04:21:04;7.60;99.90
10155;DHT22;5118;48.570;7.916;2022-09-23T04:23:33;7.60;99.90
10155;DHT22;5118;48.570;7.916;2022-09-23T04:26:03;7.60;99.90
10155;DHT22;5118;48.570;7.916;2022-09-23T04:28:31;7.60;99.90
10155;DHT22;5118;48.570;7.916;2022-09-23T04:31:03;7.60;99.90
10155;DHT22;5118;48.570;7.916;2022-09-23T04:33:32;7.60;99.90
10155;DHT22;5118;48.570;7.916;2022-09-23T04:36:02;7.60;99.90
10155;DHT22;5118;48.570;7.916;2022-09-23T04:38:34;7.70;99.90
10155;DHT22;5118;48.570;7.916;2022-09-23T04:41:07;7.70;99.90
10155;DHT22;5118;48.570;7.916;2022-09-23T04:43:37;7.70;99.90
10155;DHT22;5118;48.570;7.916;2022-09-23T04:46:08;7.70;99.90
10155;DHT22;5118;48.570;7.916;2022-09-23T04:48:40;7.70;99.90
10155;DHT22;5118;48.570;7.916;2022-09-23T04:51:11;7.70;99.90
10155;DHT22;5118;48.570;7.916;2022-09-23T04:53:45;7.70;99.90
10155;DHT22;5118;48.570;7.916;2022-09-23T04:56:16;7.70;99.90
10155;DHT22;5118;48.570;7.916;2022-09-23T04:58:47;7.70;99.90
10155;DHT22;5118;48.570;7.916;2022-09-23T05:01:18;7.60;99.90
10155;DHT22;5118;48.570;7.916;2022-09-23T05:03:52;7.60;99.90
10155;DHT22;5118;48.570;7.916;2022-09-23T05:06:21;7.60;99.90
10155;DHT22;5118;48.570;7.916;2022-09-23T05:08:52;7.60;99.90
10155;DHT22;5118;48.570;7.916;2022-09-23T05:11:21;7.50;99.90
10155;DHT22;5118;48.570;7.916;2022-09-23T05:13:52;7.50;99.90
10155;DHT22;5118;48.570;7.916;2022-09-23T05:16:21;7.50;99.90
10155;DHT22;5118;48.570;7.916;2022-09-23T05:18:51;7.50;99.90
10155;DHT22;5118;48.570;7.916;2022-09-23T05:21:21;7.40;99.90
10155;DHT22;5118;48.570;7.916;2022-09-23T05:23:52;7.40;99.90
10155;DHT22;5118;48.570;7.916;2022-09-23T05:26:23;7.40;99.90
10155;DHT22;5118;48.570;7.916;2022-09-23T05:28:52;7.40;99.90
10155;DHT22;5118;48.570;7.916;2022-09-23T05:31:22;7.40;99.90
10155;DHT22;5118;48.570;7.916;2022-09-23T05:33:53;7.50;99.90
10155;DHT22;5118;48.570;7.916;2022-09-23T05:36:24;7.50;99.90
10155;DHT22;5118;48.570;7.916;2022-09-23T05:38:55;7.60;99.90
10155;DHT22;5118;48.570;7.916;2022-09-23T05:41:25;7.70;99.90
10155;DHT22;5118;48.570;7.916;2022-09-23T05:43:55;7.90;99.90
10155;DHT22;5118;48.570;7.916;2022-09-23T05:46:27;8.00;99.90
10155;DHT22;5118;48.570;7.916;2022-09-23T05:48:57;8.10;99.90
10155;DHT22;5118;48.570;7.916;2022-09-23T05:51:30;8.20;99.90
10155;DHT22;5118;48.570;7.916;2022-09-23T05:54:01;8.30;99.90
10155;DHT22;5118;48.570;7.916;2022-09-23T05:56:31;8.40;99.90
10155;DHT22;5118;48.570;7.916;2022-09-23T05:59:00;8.50;99.90
10155;DHT22;5118;48.570;7.916;2022-09-23T06:01:30;8.50;99.90
10155;DHT22;5118;48.570;7.916;2022-09-23T06:04:02;8.50;99.90
10155;DHT22;5118;48.570;7.916;2022-09-23T06:06:33;8.60;99.90
10155;DHT22;5118;48.570;7.916;2022-09-23T06:09:04;8.60;99.90
10155;DHT22;5118;48.570;7.916;2022-09-23T06:11:34;8.70;99.90
10155;DHT22;5118;48.570;7.916;2022-09-23T06:14:03;8.70;99.90
10155;DHT22;5118;48.570;7.916;2022-09-23T06:16:32;8.80;99.90
10155;DHT22;5118;48.570;7.916;2022-09-23T06:19:02;8.80;99.90
10155;DHT22;5118;48.570;7.916;2022-09-23T06:21:33;8.90;99.90
10155;DHT22;5118;48.570;7.916;2022-09-23T06:24:04;9.00;99.90
10155;DHT22;5118;48.570;7.916;2022-09-23T06:26:33;9.10;99.90
10155;DHT22;5118;48.570;7.916;2022-09-23T06:29:09;9.10;99.90
10155;DHT22;5118;48.570;7.916;2022-09-23T06:31:38;9.20;99.90
10155;DHT22;5118;48.570;7.916;2022-09-23T06:34:09;9.30;99.90
10155;DHT22;5118;48.570;7.916;2022-09-23T06:36:40;9.40;99.90
10155;DHT22;5118;48.570;7.916;2022-09-23T06:39:13;9.50;99.90
10155;DHT22;5118;48.570;7.916;2022-09-23T06:41:42;9.50;99.90
10155;DHT22;5118;48.570;7.916;2022-09-23T06:44:12;9.60;99.90
10155;DHT22;5118;48.570;7.916;2022-09-23T06:46:40;9.70;99.90
10155;DHT22;5118;48.570;7.916;2022-09-23T06:49:09;9.80;99.90
10155;DHT22;5118;48.570;7.916;2022-09-23T06:51:39;9.90;99.90
10155;DHT22;5118;48.570;7.916;2022-09-23T06:54:07;10.00;99.90
10155;DHT22;5118;48.570;7.916;2022-09-23T06:56:38;10.10;99.90
10155;DHT22;5118;48.570;7.916;2022-09-23T06:59:08;10.20;99.90
10155;DHT22;5118;48.570;7.916;2022-09-23T07:01:39;10.30;99.90
10155;DHT22;5118;48.570;7.916;2022-09-23T07:04:07;10.40;99.90
10155;DHT22;5118;48.570;7.916;2022-09-23T07:06:36;10.50;99.90
10155;DHT22;5118;48.570;7.916;2022-09-23T07:09:05;10.50;99.90
10155;DHT22;5118;48.570;7.916;2022-09-23T07:11:33;10.60;99.90
10155;DHT22;5118;48.570;7.916;2022-09-23T07:14:03;10.70;99.90
10155;DHT22;5118;48.570;7.916;2022-09-23T07:16:31;10.80;99.90
10155;DHT22;5118;48.570;7.916;2022-09-23T07:19:00;10.90;99.90
10155;DHT22;5118;48.570;7.916;2022-09-23T07:21:28;10.90;99.90
10155;DHT22;5118;48.570;7.916;2022-09-23T07:23:56;11.00;99.90
10155;DHT22;5118;48.570;7.916;2022-09-23T07:26:25;11.10;99.90
10155;DHT22;5118;48.570;7.916;2022-09-23T07:28:54;11.20;99.90
10155;DHT22;5118;48.570;7.916;2022-09-23T07:31:24;11.30;99.90
10155;DHT22;5118;48.570;7.916;2022-09-23T07:34:06;11.30;99.90
10155;DHT22;5118;48.570;7.916;2022-09-23T07:36:36;11.40;99.90
10155;DHT22;5118;48.570;7.916;2022-09-23T07:39:08;11.50;99.90
10155;DHT22;5118;48.570;7.916;2022-09-23T07:41:37;11.60;99.90
10155;DHT22;5118;48.570;7.916;2022-09-23T07:44:08;11.70;99.90
10155;DHT22;5118;48.570;7.916;2022-09-23T07:46:38;11.70;99.90
10155;DHT22;5118;48.570;7.916;2022-09-23T07:49:07;11.80;99.90
10155;DHT22;5118;48.570;7.916;2022-09-23T07:51:38;11.80;99.90
10155;DHT22;5118;48.570;7.916;2022-09-23T07:54:10;11.90;99.90
10155;DHT22;5118;48.570;7.916;2022-09-23T07:56:39;12.00;99.90
10155;DHT22;5118;48.570;7.916;2022-09-23T07:59:11;12.20;99.90
10155;DHT22;5118;48.570;7.916;2022-09-23T08:01:44;12.30;99.90
10155;DHT22;5118;48.570;7.916;2022-09-23T08:04:17;12.50;99.90
10155;DHT22;5118;48.570;7.916;2022-09-23T08:06:47;12.70;99.90
10155;DHT22;5118;48.570;7.916;2022-09-23T08:09:17;12.90;99.90
10155;DHT22;5118;48.570;7.916;2022-09-23T08:11:46;13.10;99.90
10155;DHT22;5118;48.570;7.916;2022-09-23T08:14:15;13.30;99.90
10155;DHT22;5118;48.570;7.916;2022-09-23T08:16:45;13.50;99.90
10155;DHT22;5118;48.570;7.916;2022-09-23T08:19:14;13.70;99.90
10155;DHT22;5118;48.570;7.916;2022-09-23T08:21:45;13.90;99.90
10155;DHT22;5118;48.570;7.916;2022-09-23T08:24:15;14.00;99.90
10155;DHT22;5118;48.570;7.916;2022-09-23T08:26:45;14.10;99.90
10155;DHT22;5118;48.570;7.916;2022-09-23T08:29:17;14.20;99.90
10155;DHT22;5118;48.570;7.916;2022-09-23T08:31:47;14.30;99.90
10155;DHT22;5118;48.570;7.916;2022-09-23T08:34:17;14.30;99.90
10155;DHT22;5118;48.570;7.916;2022-09-23T08:36:46;14.40;99.90
10155;DHT22;5118;48.570;7.916;2022-09-23T08:39:16;14.40;99.90
10155;DHT22;5118;48.570;7.916;2022-09-23T08:41:49;14.40;99.90
10155;DHT22;5118;48.570;7.916;2022-09-23T08:44:29;14.30;99.90
10155;DHT22;5118;48.570;7.916;2022-09-23T08:47:16;14.40;99.90
10155;DHT22;5118;48.570;7.916;2022-09-23T08:49:52;14.40;99.90
10155;DHT22;5118;48.570;7.916;2022-09-23T08:52:28;14.40;99.90
10155;DHT22;5118;48.570;7.916;2022-09-23T08:55:00;14.50;99.90
10155;DHT22;5118;48.570;7.916;2022-09-23T08:57:37;14.60;99.90
10155;DHT22;5118;48.570;7.916;2022-09-23T09:00:14;14.70;99.90
10155;DHT22;5118;48.570;7.916;2022-09-23T09:02:48;14.80;99.90
10155;DHT22;5118;48.570;7.916;2022-09-23T09:05:22;14.90;99.90
10155;DHT22;5118;48.570;7.916;2022-09-23T09:07:53;15.00;99.90
10155;DHT22;5118;48.570;7.916;2022-09-23T09:10:25;15.10;99.90
10155;DHT22;5118;48.570;7.916;2022-09-23T09:13:01;15.10;99.90
10155;DHT22;5118;48.570;7.916;2022-09-23T09:15:36;15.30;99.90
10155;DHT22;5118;48.570;7.916;2022-09-23T09:18:16;15.40;99.90
10155;DHT22;5118;48.570;7.916;2022-09-23T09:20:50;15.50;99.90
10155;DHT22;5118;48.570;7.916;2022-09-23T09:23:27;15.60;99.90
10155;DHT22;5118;48.570;7.916;2022-09-23T09:26:00;15.70;99.90
10155;DHT22;5118;48.570;7.916;2022-09-23T09:28:33;15.90;99.90
10155;DHT22;5118;48.570;7.916;2022-09-23T09:31:18;16.00;99.90
10155;DHT22;5118;48.570;7.916;2022-09-23T09:33:54;16.10;99.90
10155;DHT22;5118;48.570;7.916;2022-09-23T09:36:31;16.20;99.90
10155;DHT22;5118;48.570;7.916;2022-09-23T09:39:02;16.20;99.90
10155;DHT22;5118;48.570;7.916;2022-09-23T09:41:30;16.40;99.90
10155;DHT22;5118;48.570;7.916;2022-09-23T09:44:01;16.40;99.90
10155;DHT22;5118;48.570;7.916;2022-09-23T09:46:41;16.50;99.90
10155;DHT22;5118;48.570;7.916;2022-09-23T09:49:25;16.70;99.90
10155;DHT22;5118;48.570;7.916;2022-09-23T09:52:10;16.80;99.90
10155;DHT22;5118;48.570;7.916;2022-09-23T09:54:39;17.00;99.90
10155;DHT22;5118;48.570;7.916;2022-09-23T09:57:25;17.10;99.90
10155;DHT22;5118;48.570;7.916;2022-09-23T10:00:18;17.20;99.90
10155;DHT22;5118;48.570;7.916;2022-09-23T10:02:51;17.30;99.90
10155;DHT22;5118;48.570;7.916;2022-09-23T10:05:27;17.50;99.90
10155;DHT22;5118;48.570;7.916;2022-09-23T10:08:19;17.50;99.90
10155;DHT22;5118;48.570;7.916;2022-09-23T10:10:50;17.60;99.90
10155;DHT22;5118;48.570;7.916;2022-09-23T10:13:21;17.70;99.90
10155;DHT22;5118;48.570;7.916;2022-09-23T10:15:50;17.70;99.90
10155;DHT22;5118;48.570;7.916;2022-09-23T10:18:27;17.80;99.90
10155;DHT22;5118;48.570;7.916;2022-09-23T10:21:05;17.80;99.90
10155;DHT22;5118;48.570;7.916;2022-09-23T10:23:38;17.90;99.90
10155;DHT22;5118;48.570;7.916;2022-09-23T10:26:08;18.10;99.90
10155;DHT22;5118;48.570;7.916;2022-09-23T10:28:40;18.20;99.90
10155;DHT22;5118;48.570;7.916;2022-09-23T10:31:12;18.30;99.90
10155;DHT22;5118;48.570;7.916;2022-09-23T10:33:47;18.40;99.90
10155;DHT22;5118;48.570;7.916;2022-09-23T10:36:17;18.60;99.90
10155;DHT22;5118;48.570;7.916;2022-09-23T10:38:48;19.00;99.90
10155;DHT22;5118;48.570;7.916;2022-09-23T10:41:28;19.50;99.90
10155;DHT22;5118;48.570;7.916;2022-09-23T10:44:28;20.20;99.90
10155;DHT22;5118;48.570;7.916;2022-09-23T10:47:23;21.20;99.90
10155;DHT22;5118;48.570;7.916;2022-09-23T10:50:13;21.90;99.90
10155;DHT22;5118;48.570;7.916;2022-09-23T10:52:52;22.60;99.90
10155;DHT22;5118;48.570;7.916;2022-09-23T10:55:39;23.20;99.90
10155;DHT22;5118;48.570;7.916;2022-09-23T10:58:20;23.80;99.90
10155;DHT22;5118;48.570;7.916;2022-09-23T11:01:00;24.40;99.60
10155;DHT22;5118;48.570;7.916;2022-09-23T11:06:37;25.70;94.20
10155;DHT22;5118;48.570;7.916;2022-09-23T11:09:21;26.10;93.00
10155;DHT22;5118;48.570;7.916;2022-09-23T11:12:05;26.70;93.60
10155;DHT22;5118;48.570;7.916;2022-09-23T11:14:50;27.30;90.70
10155;DHT22;5118;48.570;7.916;2022-09-23T11:17:33;27.90;80.60
10155;DHT22;5118;48.570;7.916;2022-09-23T11:20:24;28.40;76.10
10155;DHT22;5118;48.570;7.916;2022-09-23T11:23:11;28.60;78.20
10155;DHT22;5118;48.570;7.916;2022-09-23T11:25:50;29.00;77.30
10155;DHT22;5118;48.570;7.916;2022-09-23T11:28:51;29.40;74.00
10155;DHT22;5118;48.570;7.916;2022-09-23T11:31:31;30.00;70.40
10155;DHT22;5118;48.570;7.916;2022-09-23T11:34:23;30.30;68.60
10155;DHT22;5118;48.570;7.916;2022-09-23T11:36:58;30.70;61.50
10155;DHT22;5118;48.570;7.916;2022-09-23T11:39:34;30.80;58.90
10155;DHT22;5118;48.570;7.916;2022-09-23T11:42:06;30.80;57.50
10155;DHT22;5118;48.570;7.916;2022-09-23T11:44:43;30.70;58.10
10155;DHT22;5118;48.570;7.916;2022-09-23T11:47:17;31.00;58.10
10155;DHT22;5118;48.570;7.916;2022-09-23T11:49:52;31.40;58.00
10155;DHT22;5118;48.570;7.916;2022-09-23T11:52:24;31.40;54.70
10155;DHT22;5118;48.570;7.916;2022-09-23T11:54:58;30.80;52.60
10155;DHT22;5118;48.570;7.916;2022-09-23T11:57:43;30.60;54.50
10155;DHT22;5118;48.570;7.916;2022-09-23T12:00:18;30.80;54.10
10155;DHT22;5118;48.570;7.916;2022-09-23T12:02:58;31.20;53.50
10155;DHT22;5118;48.570;7.916;2022-09-23T12:05:35;31.80;52.00
10155;DHT22;5118;48.570;7.916;2022-09-23T12:08:11;32.50;51.10
10155;DHT22;5118;48.570;7.916;2022-09-23T12:10:46;33.10;49.50
10155;DHT22;5118;48.570;7.916;2022-09-23T12:13:21;33.20;45.60
10155;DHT22;5118;48.570;7.916;2022-09-23T12:16:04;32.90;44.00
10155;DHT22;5118;48.570;7.916;2022-09-23T12:18:50;32.50;45.40
10155;DHT22;5118;48.570;7.916;2022-09-23T12:21:36;32.40;45.80
10155;DHT22;5118;48.570;7.916;2022-09-23T12:24:29;32.40;45.80
10155;DHT22;5118;48.570;7.916;2022-09-23T12:27:07;32.40;46.40
10155;DHT22;5118;48.570;7.916;2022-09-23T12:29:38;31.90;44.60
10155;DHT22;5118;48.570;7.916;2022-09-23T12:32:16;31.60;44.30
10155;DHT22;5118;48.570;7.916;2022-09-23T12:34:47;31.40;43.50
10155;DHT22;5118;48.570;7.916;2022-09-23T12:37:24;31.20;45.40
10155;DHT22;5118;48.570;7.916;2022-09-23T12:39:57;31.10;46.00
10155;DHT22;5118;48.570;7.916;2022-09-23T12:42:25;30.90;46.80
10155;DHT22;5118;48.570;7.916;2022-09-23T12:45:17;30.70;46.70
10155;DHT22;5118;48.570;7.916;2022-09-23T12:47:46;30.30;46.60
10155;DHT22;5118;48.570;7.916;2022-09-23T12:51:11;30.10;46.50
10155;DHT22;5118;48.570;7.916;2022-09-23T12:53:52;30.00;45.60
10155;DHT22;5118;48.570;7.916;2022-09-23T12:56:24;30.00;47.50
10155;DHT22;5118;48.570;7.916;2022-09-23T12:59:08;30.10;46.80
10155;DHT22;5118;48.570;7.916;2022-09-23T13:01:39;30.10;46.20
10155;DHT22;5118;48.570;7.916;2022-09-23T13:04:30;29.80;46.00
10155;DHT22;5118;48.570;7.916;2022-09-23T13:07:17;29.60;46.30
10155;DHT22;5118;48.570;7.916;2022-09-23T13:09:48;29.30;46.50
10155;DHT22;5118;48.570;7.916;2022-09-23T13:12:20;28.50;46.90
10155;DHT22;5118;48.570;7.916;2022-09-23T13:14:53;28.20;47.70
10155;DHT22;5118;48.570;7.916;2022-09-23T13:17:28;28.10;48.10
10155;DHT22;5118;48.570;7.916;2022-09-23T13:20:03;28.10;48.70
10155;DHT22;5118;48.570;7.916;2022-09-23T13:25:28;28.10;48.60
10155;DHT22;5118;48.570;7.916;2022-09-23T13:28:00;27.70;48.20
10155;DHT22;5118;48.570;7.916;2022-09-23T13:30:29;27.50;49.70
10155;DHT22;5118;48.570;7.916;2022-09-23T13:33:07;27.40;50.20
10155;DHT22;5118;48.570;7.916;2022-09-23T13:35:40;27.10;49.70
10155;DHT22;5118;48.570;7.916;2022-09-23T13:38:10;26.90;51.10
10155;DHT22;5118;48.570;7.916;2022-09-23T13:40:43;26.70;50.50
10155;DHT22;5118;48.570;7.916;2022-09-23T13:43:17;26.60;51.50
10155;DHT22;5118;48.570;7.916;2022-09-23T13:45:48;26.60;51.20
10155;DHT22;5118;48.570;7.916;2022-09-23T13:48:22;26.90;51.70
10155;DHT22;5118;48.570;7.916;2022-09-23T13:50:51;27.20;51.60
10155;DHT22;5118;48.570;7.916;2022-09-23T13:53:23;27.80;50.80
10155;DHT22;5118;48.570;7.916;2022-09-23T13:56:02;28.60;50.10
10155;DHT22;5118;48.570;7.916;2022-09-23T13:58:32;29.80;48.30
10155;DHT22;5118;48.570;7.916;2022-09-23T14:01:01;30.80;48.20
10155;DHT22;5118;48.570;7.916;2022-09-23T14:03:34;31.40;47.60
10155;DHT22;5118;48.570;7.916;2022-09-23T14:06:07;31.60;46.60
10155;DHT22;5118;48.570;7.916;2022-09-23T14:08:38;31.60;46.20
10155;DHT22;5118;48.570;7.916;2022-09-23T14:11:06;31.40;46.00
10155;DHT22;5118;48.570;7.916;2022-09-23T14:13:39;31.10;46.30
10155;DHT22;5118;48.570;7.916;2022-09-23T14:16:10;30.60;46.00
10155;DHT22;5118;48.570;7.916;2022-09-23T14:18:44;29.90;46.40
10155;DHT22;5118;48.570;7.916;2022-09-23T14:21:26;29.20;46.70
10155;DHT22;5118;48.570;7.916;2022-09-23T14:23:55;28.50;47.40
10155;DHT22;5118;48.570;7.916;2022-09-23T14:26:24;27.80;48.00
10155;DHT22;5118;48.570;7.916;2022-09-23T14:28:53;27.40;49.20
10155;DHT22;5118;48.570;7.916;2022-09-23T14:31:22;27.10;49.90
10155;DHT22;5118;48.570;7.916;2022-09-23T14:33:52;26.90;50.10
10155;DHT22;5118;48.570;7.916;2022-09-23T14:36:21;26.80;51.00
10155;DHT22;5118;48.570;7.916;2022-09-23T14:39:09;26.70;52.20
10155;DHT22;5118;48.570;7.916;2022-09-23T14:41:40;26.60;52.50
10155;DHT22;5118;48.570;7.916;2022-09-23T14:44:19;26.40;53.10
10155;DHT22;5118;48.570;7.916;2022-09-23T14:46:53;26.20;53.50
10155;DHT22;5118;48.570;7.916;2022-09-23T14:49:25;26.00;52.90
10155;DHT22;5118;48.570;7.916;2022-09-23T14:51:55;25.70;52.90
10155;DHT22;5118;48.570;7.916;2022-09-23T14:54:31;25.40;53.50
10155;DHT22;5118;48.570;7.916;2022-09-23T14:57:02;25.10;53.90
10155;DHT22;5118;48.570;7.916;2022-09-23T14:59:34;24.70;54.70
10155;DHT22;5118;48.570;7.916;2022-09-23T15:02:28;24.50;55.60
10155;DHT22;5118;48.570;7.916;2022-09-23T15:05:16;24.20;56.10
10155;DHT22;5118;48.570;7.916;2022-09-23T15:07:48;23.90;56.80
10155;DHT22;5118;48.570;7.916;2022-09-23T15:10:19;23.70;56.80
10155;DHT22;5118;48.570;7.916;2022-09-23T15:12:51;23.50;57.20
10155;DHT22;5118;48.570;7.916;2022-09-23T15:15:24;23.30;58.00
10155;DHT22;5118;48.570;7.916;2022-09-23T15:17:54;23.20;58.50
10155;DHT22;5118;48.570;7.916;2022-09-23T15:20:25;23.10;58.90
10155;DHT22;5118;48.570;7.916;2022-09-23T15:22:54;23.10;58.70
10155;DHT22;5118;48.570;7.916;2022-09-23T15:25:25;23.20;58.80
10155;DHT22;5118;48.570;7.916;2022-09-23T15:28:00;23.20;59.60
10155;DHT22;5118;48.570;7.916;2022-09-23T15:30:30;23.30;59.90
10155;DHT22;5118;48.570;7.916;2022-09-23T15:32:58;23.40;59.80
10155;DHT22;5118;48.570;7.916;2022-09-23T15:35:29;23.40;59.50
10155;DHT22;5118;48.570;7.916;2022-09-23T15:38:01;23.30;59.50
10155;DHT22;5118;48.570;7.916;2022-09-23T15:40:31;23.30;59.90
10155;DHT22;5118;48.570;7.916;2022-09-23T15:43:06;23.30;60.40
10155;DHT22;5118;48.570;7.916;2022-09-23T15:45:43;23.30;60.70
10155;DHT22;5118;48.570;7.916;2022-09-23T15:48:14;23.20;60.90
10155;DHT22;5118;48.570;7.916;2022-09-23T15:50:44;23.20;61.30
10155;DHT22;5118;48.570;7.916;2022-09-23T15:53:13;23.10;61.10
10155;DHT22;5118;48.570;7.916;2022-09-23T15:55:44;23.00;61.30
10155;DHT22;5118;48.570;7.916;2022-09-23T15:58:12;22.80;61.80
10155;DHT22;5118;48.570;7.916;2022-09-23T16:00:40;22.70;62.50
10155;DHT22;5118;48.570;7.916;2022-09-23T16:03:09;22.60;63.10
10155;DHT22;5118;48.570;7.916;2022-09-23T16:05:43;22.50;63.70
10155;DHT22;5118;48.570;7.916;2022-09-23T16:08:12;22.40;65.10
10155;DHT22;5118;48.570;7.916;2022-09-23T16:10:44;22.30;64.60
10155;DHT22;5118;48.570;7.916;2022-09-23T16:13:27;22.10;64.80
10155;DHT22;5118;48.570;7.916;2022-09-23T16:15:55;22.00;65.10
10155;DHT22;5118;48.570;7.916;2022-09-23T16:18:25;21.90;65.80
10155;DHT22;5118;48.570;7.916;2022-09-23T16:20:54;21.80;66.10
10155;DHT22;5118;48.570;7.916;2022-09-23T16:23:25;21.60;66.40
10155;DHT22;5118;48.570;7.916;2022-09-23T16:26:06;21.50;66.90
10155;DHT22;5118;48.570;7.916;2022-09-23T16:28:35;21.40;67.60
10155;DHT22;5118;48.570;7.916;2022-09-23T16:31:03;21.20;68.10
10155;DHT22;5118;48.570;7.916;2022-09-23T16:33:32;21.00;68.70
10155;DHT22;5118;48.570;7.916;2022-09-23T16:36:02;20.80;69.30
10155;DHT22;5118;48.570;7.916;2022-09-23T16:38:30;20.70;70.40
10155;DHT22;5118;48.570;7.916;2022-09-23T16:40:59;20.50;70.70